createdAt,value
2019-04-11T00:00:19.493Z,99.90
2019-04-11T00:02:49.010Z,99.90
2019-04-11T00:05:17.582Z,99.90
2019-04-11T00:07:46.726Z,99.90
2019-04-11T00:10:15.787Z,99.90
2019-04-11T00:12:44.397Z,99.90
2019-04-11T00:15:12.928Z,99.90
2019-04-11T00:17:41.849Z,99.90
2019-04-11T00:20:11.723Z,99.90
2019-04-11T00:22:40.256Z,99.90
2019-04-11T00:25:09.480Z,99.90
2019-04-11T00:27:39.191Z,99.90
2019-04-11T00:30:08.354Z,99.90
2019-04-11T00:32:37.866Z,99.90
2019-04-11T00:35:07.182Z,99.90
2019-04-11T00:37:35.677Z,99.90
2019-04-11T00:40:06.175Z,99.90
2019-04-11T00:42:34.673Z,99.90
2019-04-11T00:45:03.333Z,99.90
2019-04-11T00:47:31.860Z,99.90
2019-04-11T00:50:01.021Z,99.90
2019-04-11T00:52:29.543Z,99.90
2019-04-11T00:54:57.972Z,99.90
2019-04-11T00:57:26.426Z,99.90
2019-04-11T00:59:54.852Z,99.90
2019-04-11T01:02:23.301Z,99.90
2019-04-11T01:04:52.833Z,99.90
2019-04-11T01:07:21.366Z,99.90
2019-04-11T01:09:50.696Z,99.90
2019-04-11T01:12:19.215Z,99.90
2019-04-11T01:14:47.642Z,99.90
2019-04-11T01:17:16.915Z,99.90
2019-04-11T01:19:45.592Z,99.90
2019-04-11T01:22:14.066Z,99.90
2019-04-11T01:24:42.616Z,99.90
2019-04-11T01:27:11.867Z,99.90
2019-04-11T01:29:41.622Z,99.90
2019-04-11T01:32:12.113Z,99.90
2019-04-11T01:34:40.699Z,99.90
2019-04-11T01:37:09.276Z,99.90
2019-04-11T01:39:39.470Z,99.90
2019-04-11T01:42:09.055Z,99.90
2019-04-11T01:44:38.686Z,99.90
2019-04-11T01:47:08.978Z,99.90
2019-04-11T01:49:38.389Z,99.90
2019-04-11T01:52:07.073Z,99.90
2019-04-11T01:54:35.545Z,99.90
2019-04-11T01:57:05.272Z,99.90
2019-04-11T01:59:33.956Z,99.90
2019-04-11T02:02:09.633Z,99.90
2019-04-11T02:04:54.594Z,99.90
2019-04-11T02:07:23.049Z,99.90
2019-04-11T02:09:52.496Z,99.90
2019-04-11T02:12:22.402Z,99.90
2019-04-11T02:14:52.079Z,99.90
2019-04-11T02:17:20.677Z,99.90
2019-04-11T02:19:50.220Z,99.90
2019-04-11T02:22:35.578Z,99.90
2019-04-11T02:25:10.219Z,99.90
2019-04-11T02:27:40.270Z,99.90
2019-04-11T02:30:11.209Z,99.90
2019-04-11T02:32:41.009Z,99.90
2019-04-11T02:35:11.138Z,99.90
2019-04-11T02:37:42.042Z,99.90
2019-04-11T02:40:11.211Z,99.90
2019-04-11T02:42:41.059Z,99.90
2019-04-11T02:45:24.965Z,99.90
2019-04-11T02:47:43.943Z,99.90
2019-04-11T02:50:14.861Z,99.90
2019-04-11T02:52:42.225Z,99.90
2019-04-11T02:55:13.018Z,99.90
2019-04-11T02:57:42.906Z,99.90
2019-04-11T03:00:13.157Z,99.90
2019-04-11T03:02:44.152Z,99.90
2019-04-11T03:05:13.747Z,99.90
2019-04-11T03:07:42.579Z,99.90
2019-04-11T03:10:13.395Z,99.90
2019-04-11T03:12:43.348Z,99.90
2019-04-11T03:15:28.764Z,99.90
2019-04-11T03:17:44.590Z,99.90
2019-04-11T03:20:21.765Z,99.90
2019-04-11T03:22:42.696Z,99.90
2019-04-11T03:25:11.786Z,99.90
2019-04-11T03:27:40.873Z,99.90
2019-04-11T03:30:14.595Z,99.90
2019-04-11T03:35:59.888Z,99.90
2019-04-11T03:37:58.654Z,99.90
2019-04-11T03:40:25.849Z,99.90
2019-04-11T03:42:55.625Z,99.90
2019-04-11T03:45:34.862Z,99.90
2019-04-11T03:47:57.660Z,99.90
2019-04-11T03:50:16.661Z,99.90
2019-04-11T03:52:43.109Z,99.90
2019-04-11T03:55:13.219Z,99.90
2019-04-11T03:57:42.350Z,99.90
2019-04-11T04:00:14.270Z,99.90
2019-04-11T04:02:41.651Z,99.90
2019-04-11T04:05:10.678Z,99.90
2019-04-11T04:07:40.341Z,99.90
2019-04-11T04:10:13.083Z,99.90
2019-04-11T04:12:40.376Z,99.90
2019-04-11T04:15:48.857Z,99.90
2019-04-11T04:18:11.981Z,99.90
2019-04-11T04:20:59.868Z,99.90
2019-04-11T04:23:31.478Z,99.90
2019-04-11T04:26:01.073Z,99.90
2019-04-11T04:28:31.800Z,99.90
2019-04-11T04:31:02.006Z,99.90
2019-04-11T04:33:31.449Z,99.90
2019-04-11T04:36:02.337Z,99.90
2019-04-11T04:38:33.647Z,99.90
2019-04-11T04:41:16.796Z,99.90
2019-04-11T04:43:36.235Z,99.90
2019-04-11T04:46:23.729Z,99.90
2019-04-11T04:48:35.204Z,99.90
2019-04-11T04:51:08.315Z,99.90
2019-04-11T04:53:35.464Z,99.90
2019-04-11T04:56:04.150Z,99.90
2019-04-11T04:58:33.935Z,99.90
2019-04-11T05:01:04.137Z,99.90
2019-04-11T05:03:34.273Z,99.90
2019-04-11T05:06:04.051Z,99.90
2019-04-11T05:08:32.777Z,99.90
2019-04-11T05:11:02.252Z,99.90
2019-04-11T05:13:32.295Z,99.90
2019-04-11T05:16:11.002Z,99.90
2019-04-11T05:18:32.118Z,99.90
2019-04-11T05:21:01.095Z,99.90
2019-04-11T05:23:29.827Z,99.90
2019-04-11T05:25:59.987Z,99.90
2019-04-11T05:28:29.729Z,99.90
2019-04-11T05:30:58.408Z,99.90
2019-04-11T05:33:27.391Z,99.90
2019-04-11T05:35:56.373Z,99.90
2019-04-11T05:38:25.320Z,99.90
2019-04-11T05:40:54.540Z,99.90
2019-04-11T05:43:28.131Z,99.90
2019-04-11T05:45:55.064Z,99.90
2019-04-11T05:48:43.193Z,99.90
2019-04-11T05:51:11.632Z,99.90
2019-04-11T05:53:40.092Z,99.90
2019-04-11T05:56:09.236Z,99.90
2019-04-11T05:58:42.020Z,99.90
2019-04-11T06:01:14.631Z,99.90
2019-04-11T06:03:45.347Z,99.90
2019-04-11T06:06:18.413Z,99.90
2019-04-11T06:08:48.266Z,99.90
2019-04-11T06:11:23.899Z,99.90
2019-04-11T06:14:09.267Z,99.90
2019-04-11T06:16:43.620Z,99.90
2019-04-11T06:19:22.868Z,99.90
2019-04-11T06:21:56.127Z,99.90
2019-04-11T06:24:42.614Z,99.90
2019-04-11T06:27:13.795Z,99.90
2019-04-11T06:29:47.388Z,99.90
2019-04-11T06:32:21.506Z,99.90
2019-04-11T06:34:57.835Z,99.90
2019-04-11T06:37:44.231Z,99.90
2019-04-11T06:40:20.327Z,99.90
2019-04-11T06:43:08.299Z,99.90
2019-04-11T06:45:41.783Z,99.90
2019-04-11T06:48:11.965Z,99.90
2019-04-11T06:50:44.521Z,99.90
2019-04-11T06:53:14.807Z,99.90
2019-04-11T06:56:03.600Z,99.90
2019-04-11T06:58:33.760Z,99.90
2019-04-11T07:01:03.939Z,99.90
2019-04-11T07:03:34.036Z,99.90
2019-04-11T07:06:05.039Z,99.90
2019-04-11T07:08:35.260Z,99.90
2019-04-11T07:11:05.411Z,99.90
2019-04-11T07:13:39.256Z,99.90
2019-04-11T07:16:08.992Z,99.90
2019-04-11T07:18:42.065Z,99.90
2019-04-11T07:21:11.542Z,99.90
2019-04-11T07:23:57.780Z,99.90
2019-04-11T07:26:30.551Z,99.90
2019-04-11T07:29:04.396Z,99.90
2019-04-11T07:31:40.754Z,99.90
2019-04-11T07:34:17.072Z,99.90
2019-04-11T07:37:04.512Z,99.90
2019-04-11T07:39:41.367Z,99.90
2019-04-11T07:42:13.717Z,99.90
2019-04-11T07:44:49.921Z,98.80
2019-04-11T07:47:26.713Z,98.40
2019-04-11T07:49:57.237Z,98.60
2019-04-11T07:52:27.232Z,98.50
2019-04-11T07:54:56.475Z,97.70
2019-04-11T07:57:26.549Z,97.30
2019-04-11T07:59:57.756Z,96.20
2019-04-11T08:02:28.999Z,96.70
2019-04-11T08:05:11.425Z,96.10
2019-04-11T08:07:57.401Z,94.40
2019-04-11T08:10:27.550Z,91.60
2019-04-11T08:12:58.253Z,91.20
2019-04-11T08:15:29.323Z,90.20
2019-04-11T08:17:59.829Z,90.90
2019-04-11T08:20:33.247Z,91.10
2019-04-11T08:23:03.637Z,89.80
2019-04-11T08:25:37.624Z,87.90
2019-04-11T08:28:10.968Z,89.60
2019-04-11T08:30:48.885Z,91.40
2019-04-11T08:33:19.322Z,89.60
2019-04-11T08:35:54.019Z,87.70
2019-04-11T08:38:24.697Z,87.80
2019-04-11T08:41:03.673Z,86.10
2019-04-11T08:43:35.639Z,88.90
2019-04-11T08:46:15.059Z,90.00
2019-04-11T08:49:01.614Z,92.70
2019-04-11T08:51:31.847Z,91.30
2019-04-11T08:54:19.435Z,91.60
2019-04-11T08:56:47.969Z,88.70
2019-04-11T08:59:35.845Z,86.30
2019-04-11T09:02:06.672Z,81.00
2019-04-11T09:04:37.040Z,83.90
2019-04-11T09:07:05.843Z,81.50
2019-04-11T09:09:52.179Z,90.60
2019-04-11T09:12:20.699Z,95.20
2019-04-11T09:15:07.037Z,98.60
2019-04-11T09:17:37.156Z,99.90
2019-04-11T09:20:11.580Z,99.90
2019-04-11T09:22:44.960Z,99.90
2019-04-11T09:25:18.936Z,99.90
2019-04-11T09:27:55.623Z,99.90
2019-04-11T09:30:41.629Z,99.90
2019-04-11T09:33:20.848Z,99.90
2019-04-11T09:36:00.028Z,99.90
2019-04-11T09:38:30.581Z,99.90
2019-04-11T09:41:08.011Z,99.90
2019-04-11T09:43:38.329Z,99.90
2019-04-11T09:46:12.274Z,99.90
2019-04-11T09:48:50.517Z,99.90
2019-04-11T09:51:29.025Z,99.90
2019-04-11T09:53:59.170Z,99.90
2019-04-11T09:56:29.322Z,99.90
2019-04-11T09:59:00.236Z,99.90
2019-04-11T10:01:33.399Z,99.90
2019-04-11T10:04:01.847Z,99.90
2019-04-11T10:06:34.622Z,99.90
2019-04-11T10:09:03.793Z,99.90
2019-04-11T10:11:36.376Z,99.90
2019-04-11T10:14:10.209Z,99.90
2019-04-11T10:16:44.256Z,99.90
2019-04-11T10:19:14.414Z,99.90
2019-04-11T10:21:47.879Z,99.90
2019-04-11T10:24:34.572Z,99.90
2019-04-11T10:27:14.230Z,99.90
2019-04-11T10:30:00.908Z,99.90
2019-04-11T10:32:31.055Z,99.90
2019-04-11T10:35:13.017Z,99.90
2019-04-11T10:37:44.215Z,99.90
2019-04-11T10:40:26.729Z,99.90
2019-04-11T10:42:55.958Z,99.90
2019-04-11T10:45:32.193Z,99.90
2019-04-11T10:48:01.202Z,99.90
2019-04-11T10:50:48.584Z,99.90
2019-04-11T10:53:17.985Z,99.90
2019-04-11T10:55:48.150Z,99.90
2019-04-11T10:58:18.495Z,99.90
2019-04-11T11:01:07.528Z,99.90
2019-04-11T11:03:53.675Z,99.90
2019-04-11T11:06:29.810Z,99.90
2019-04-11T11:09:02.403Z,98.90
2019-04-11T11:11:48.450Z,97.30
2019-04-11T11:14:34.509Z,97.40
2019-04-11T11:17:43.762Z,97.40
2019-04-11T11:20:19.564Z,95.20
2019-04-11T11:22:56.084Z,88.50
2019-04-11T11:25:28.833Z,90.10
2019-04-11T11:27:57.952Z,96.60
2019-04-11T11:30:29.484Z,99.00
2019-04-11T11:32:58.177Z,99.90
2019-04-11T11:35:45.539Z,99.90
2019-04-11T11:38:15.827Z,99.90
2019-04-11T11:40:58.447Z,99.90
2019-04-11T11:43:28.609Z,96.60
2019-04-11T11:46:10.699Z,95.30
2019-04-11T11:48:41.717Z,95.80
2019-04-11T11:51:27.017Z,97.90
2019-04-11T11:53:55.583Z,97.70
2019-04-11T11:56:24.289Z,97.70
2019-04-11T11:59:09.245Z,98.50
2019-04-11T12:01:56.978Z,98.20
2019-04-11T12:04:39.370Z,97.90
2019-04-11T12:07:12.641Z,98.60
2019-04-11T12:09:59.213Z,97.60
2019-04-11T12:12:35.881Z,98.80
2019-04-11T12:15:09.784Z,98.40
2019-04-11T12:17:56.131Z,97.80
2019-04-11T12:20:29.124Z,98.60
2019-04-11T12:23:01.033Z,99.50
2019-04-11T12:25:31.519Z,99.80
2019-04-11T12:28:04.100Z,99.90
2019-04-11T12:30:36.020Z,99.90
2019-04-11T12:33:09.261Z,99.90
2019-04-11T12:35:48.631Z,99.80
2019-04-11T12:38:24.770Z,99.60
2019-04-11T12:40:54.541Z,99.90
2019-04-11T12:43:24.609Z,98.20
2019-04-11T12:45:57.678Z,99.40
2019-04-11T12:48:27.800Z,98.50
2019-04-11T12:51:00.673Z,97.60
2019-04-11T12:53:29.181Z,98.00
2019-04-11T12:56:07.892Z,98.50
2019-04-11T12:58:38.000Z,98.90
2019-04-11T13:01:16.896Z,99.10
2019-04-11T13:04:03.072Z,99.40
2019-04-11T13:06:50.955Z,99.90
2019-04-11T13:09:21.094Z,99.90
2019-04-11T13:11:56.968Z,99.90
2019-04-11T13:14:27.052Z,99.90
2019-04-11T13:17:13.408Z,99.90
2019-04-11T13:20:04.820Z,99.90
2019-04-11T13:22:31.274Z,99.00
2019-04-11T13:25:01.439Z,98.10
2019-04-11T13:27:31.726Z,97.60
2019-04-11T13:30:01.825Z,97.30
2019-04-11T13:32:49.706Z,97.50
2019-04-11T13:35:35.892Z,97.30
2019-04-11T13:38:06.225Z,96.40
2019-04-11T13:40:44.728Z,95.90
2019-04-11T13:43:15.359Z,95.50
2019-04-11T13:46:01.489Z,95.20
2019-04-11T13:48:47.585Z,95.40
2019-04-11T13:51:32.643Z,95.90
2019-04-11T13:54:18.797Z,96.70
2019-04-11T13:57:00.987Z,96.40
2019-04-11T13:59:36.771Z,96.00
2019-04-11T14:02:13.348Z,95.60
2019-04-11T14:04:46.793Z,94.10
2019-04-11T14:07:21.262Z,92.90
2019-04-11T14:09:56.718Z,92.50
2019-04-11T14:12:26.373Z,93.00
2019-04-11T14:14:56.164Z,94.80
2019-04-11T14:17:29.185Z,96.00
2019-04-11T14:20:08.818Z,97.90
2019-04-11T14:23:06.876Z,98.80
2019-04-11T14:25:53.682Z,99.90
2019-04-11T14:28:36.700Z,98.50
2019-04-11T14:31:23.492Z,99.30
2019-04-11T14:33:55.731Z,99.70
2019-04-11T14:36:33.443Z,99.90
2019-04-11T14:39:01.999Z,99.70
2019-04-11T14:41:48.009Z,99.10
2019-04-11T14:44:17.769Z,98.20
2019-04-11T14:46:50.785Z,97.40
2019-04-11T14:49:19.502Z,96.80
2019-04-11T14:52:05.872Z,95.50
2019-04-11T14:54:36.037Z,96.70
2019-04-11T14:57:09.127Z,95.60
2019-04-11T14:59:42.500Z,96.30
2019-04-11T15:02:24.422Z,96.60
2019-04-11T15:04:54.530Z,97.50
2019-04-11T15:07:23.041Z,97.90
2019-04-11T15:09:55.883Z,97.90
2019-04-11T15:12:37.562Z,98.50
2019-04-11T15:15:24.962Z,99.40
2019-04-11T15:17:55.941Z,99.20
2019-04-11T15:20:29.080Z,99.30
2019-04-11T15:22:59.326Z,98.70
2019-04-11T15:25:29.527Z,99.00
2019-04-11T15:28:12.613Z,98.60
2019-04-11T15:30:59.325Z,98.90
2019-04-11T15:33:38.307Z,99.60
2019-04-11T15:36:08.539Z,97.50
2019-04-11T15:38:38.689Z,97.50
2019-04-11T15:41:08.869Z,97.90
2019-04-11T15:43:55.132Z,97.90
2019-04-11T15:46:25.384Z,98.00
2019-04-11T15:49:04.254Z,98.70
2019-04-11T15:51:37.220Z,98.90
2019-04-11T15:54:13.268Z,98.80
2019-04-11T15:56:55.222Z,99.00
2019-04-11T15:59:25.307Z,98.80
2019-04-11T16:01:55.412Z,96.90
2019-04-11T16:04:31.598Z,97.00
2019-04-11T16:07:14.015Z,98.20
2019-04-11T16:09:47.083Z,97.30
2019-04-11T16:12:33.486Z,97.50
2019-04-11T16:15:15.185Z,96.10
2019-04-11T16:17:58.046Z,96.20
2019-04-11T16:20:26.593Z,97.40
2019-04-11T16:23:08.652Z,97.00
2019-04-11T16:25:37.250Z,97.60
2019-04-11T16:28:22.381Z,97.60
2019-04-11T16:30:52.648Z,97.90
2019-04-11T16:33:22.820Z,97.30
2019-04-11T16:35:57.001Z,97.30
2019-04-11T16:38:27.541Z,98.40
2019-04-11T16:41:14.063Z,97.30
2019-04-11T16:43:44.208Z,96.90
2019-04-11T16:46:26.344Z,96.30
2019-04-11T16:48:55.938Z,96.70
2019-04-11T16:51:30.897Z,96.70
2019-04-11T16:53:55.105Z,97.50
2019-04-11T16:56:23.726Z,97.00
2019-04-11T16:58:52.203Z,96.70
2019-04-11T17:01:23.153Z,96.30
2019-04-11T17:03:54.809Z,96.80
2019-04-11T17:06:38.848Z,98.50
2019-04-11T17:09:14.962Z,98.70
2019-04-11T17:11:43.583Z,96.50
2019-04-11T17:14:12.101Z,97.30
2019-04-11T17:16:40.607Z,97.10
2019-04-11T17:19:11.633Z,97.40
2019-04-11T17:21:43.470Z,99.00
2019-04-11T17:24:09.502Z,99.10
2019-04-11T17:26:37.982Z,99.90
2019-04-11T17:29:06.503Z,99.90
2019-04-11T17:31:35.007Z,99.90
2019-04-11T17:34:05.633Z,99.90
2019-04-11T17:36:33.857Z,99.90
2019-04-11T17:39:06.697Z,99.90
2019-04-11T17:41:32.692Z,99.90
2019-04-11T17:44:01.184Z,99.90
2019-04-11T17:46:29.689Z,99.90
2019-04-11T17:48:58.137Z,99.90
2019-04-11T17:51:26.862Z,99.90
2019-04-11T17:53:55.686Z,99.90
2019-04-11T17:56:25.367Z,99.90
2019-04-11T17:58:57.688Z,99.90
2019-04-11T18:01:24.343Z,99.90
2019-04-11T18:03:52.863Z,99.90
2019-04-11T18:06:21.313Z,99.90
2019-04-11T18:08:51.576Z,99.90
2019-04-11T18:11:20.002Z,99.90
2019-04-11T18:13:48.457Z,99.90
2019-04-11T18:16:16.902Z,99.90
2019-04-11T18:18:45.370Z,99.90
2019-04-11T18:21:13.854Z,99.90
2019-04-11T18:23:42.457Z,99.90
2019-04-11T18:26:10.927Z,99.90
2019-04-11T18:28:39.399Z,99.90
2019-04-11T18:31:07.836Z,99.90
2019-04-11T18:33:36.311Z,99.90
2019-04-11T18:36:05.979Z,99.90
2019-04-11T18:38:34.451Z,99.90
2019-04-11T18:41:02.960Z,99.90
2019-04-11T18:43:31.616Z,99.90
2019-04-11T18:46:00.200Z,99.90
2019-04-11T18:48:28.742Z,99.90
2019-04-11T18:50:57.274Z,99.90
2019-04-11T18:53:25.807Z,99.90
2019-04-11T18:55:54.333Z,99.90
2019-04-11T18:58:22.810Z,99.90
2019-04-11T19:00:51.266Z,99.90
2019-04-11T19:03:19.778Z,99.90
2019-04-11T19:05:48.224Z,99.90
2019-04-11T19:08:16.743Z,99.90
2019-04-11T19:10:46.056Z,99.90
2019-04-11T19:13:16.960Z,99.90
2019-04-11T19:15:46.369Z,99.90
2019-04-11T19:18:16.555Z,99.90
2019-04-11T19:20:50.045Z,99.90
2019-04-11T19:23:15.974Z,99.90
2019-04-11T19:25:45.191Z,99.90
2019-04-11T19:28:13.768Z,99.90
2019-04-11T19:30:42.518Z,99.90
2019-04-11T19:33:11.114Z,99.90
2019-04-11T19:35:41.600Z,99.90
2019-04-11T19:38:12.384Z,99.90
2019-04-11T19:40:41.395Z,99.90
2019-04-11T19:43:09.941Z,99.90
2019-04-11T19:45:38.449Z,99.90
2019-04-11T19:48:06.949Z,99.90
2019-04-11T19:50:35.601Z,99.90
2019-04-11T19:53:04.091Z,99.90
2019-04-11T19:55:49.131Z,99.90
2019-04-11T19:58:19.330Z,99.90
2019-04-11T20:00:53.266Z,99.90
2019-04-11T20:03:17.989Z,99.90
2019-04-11T20:05:46.569Z,99.90
2019-04-11T20:08:15.116Z,99.90
2019-04-11T20:10:43.561Z,99.90
2019-04-11T20:13:12.151Z,99.90
2019-04-11T20:15:42.377Z,99.90
2019-04-11T20:18:10.846Z,99.90
2019-04-11T20:20:39.370Z,99.90
2019-04-11T20:23:10.546Z,99.90
2019-04-11T20:25:38.056Z,99.90
2019-04-11T20:28:06.515Z,99.90
2019-04-11T20:30:34.956Z,99.90
2019-04-11T20:33:03.799Z,99.90
2019-04-11T20:35:32.328Z,99.90
2019-04-11T20:38:00.787Z,99.90
2019-04-11T20:40:29.247Z,99.90
2019-04-11T20:42:57.862Z,99.90
2019-04-11T20:45:28.776Z,99.90
2019-04-11T20:48:00.080Z,99.90
2019-04-11T20:50:28.027Z,99.90
2019-04-11T20:52:59.255Z,99.90
2019-04-11T20:55:26.675Z,99.90
2019-04-11T20:57:55.174Z,99.90
2019-04-11T21:00:23.768Z,99.90
2019-04-11T21:02:52.222Z,99.90
2019-04-11T21:05:20.674Z,99.90
2019-04-11T21:07:49.134Z,99.90
2019-04-11T21:10:17.572Z,99.90
2019-04-11T21:12:46.046Z,99.90
2019-04-11T21:15:14.571Z,99.90
2019-04-11T21:17:43.040Z,99.90
2019-04-11T21:20:11.734Z,99.90
2019-04-11T21:22:40.159Z,99.90
2019-04-11T21:25:08.695Z,99.90
2019-04-11T21:27:37.128Z,99.90
2019-04-11T21:30:07.247Z,99.90
2019-04-11T21:32:35.734Z,99.90
2019-04-11T21:35:05.836Z,99.90
2019-04-11T21:37:36.614Z,99.90
2019-04-11T21:40:06.190Z,99.90
2019-04-11T21:42:36.210Z,99.90
2019-04-11T21:45:06.293Z,99.90
2019-04-11T21:47:37.154Z,99.90
2019-04-11T21:50:09.403Z,99.90
2019-04-11T21:52:37.163Z,99.90
2019-04-11T21:55:05.881Z,99.90
2019-04-11T21:57:34.335Z,99.90
2019-04-11T22:00:02.797Z,99.90
2019-04-11T22:02:31.227Z,99.90
2019-04-11T22:04:59.682Z,99.90
2019-04-11T22:07:30.773Z,99.90
2019-04-11T22:09:58.485Z,99.90
2019-04-11T22:12:26.934Z,99.90
2019-04-11T22:14:55.407Z,99.90
2019-04-11T22:17:23.829Z,99.90
2019-04-11T22:19:52.301Z,99.90
2019-04-11T22:22:20.801Z,99.90
2019-04-11T22:24:49.267Z,99.90
2019-04-11T22:27:17.694Z,99.90
2019-04-11T22:29:46.234Z,99.90
2019-04-11T22:32:14.819Z,99.90
2019-04-11T22:34:44.938Z,99.90
2019-04-11T22:37:13.391Z,99.90
2019-04-11T22:39:41.914Z,99.90
2019-04-11T22:42:10.491Z,99.90
2019-04-11T22:44:38.945Z,99.90
2019-04-11T22:47:08.017Z,99.90
2019-04-11T22:49:39.348Z,99.90
2019-04-11T22:52:07.323Z,99.90
2019-04-11T22:54:35.776Z,99.90
2019-04-11T22:57:04.280Z,99.90
2019-04-11T22:59:32.745Z,99.90
2019-04-11T23:02:02.821Z,99.90
2019-04-11T23:04:31.263Z,99.90
2019-04-11T23:06:59.688Z,99.90
2019-04-11T23:09:28.137Z,99.90
2019-04-11T23:11:56.645Z,99.90
2019-04-11T23:14:25.083Z,99.90
2019-04-11T23:16:53.507Z,99.90
2019-04-11T23:19:21.995Z,99.90
2019-04-11T23:21:50.424Z,99.90
2019-04-11T23:24:18.886Z,99.90
2019-04-11T23:26:47.489Z,99.90
2019-04-11T23:29:16.603Z,99.90
2019-04-11T23:31:45.141Z,99.90
2019-04-11T23:34:13.593Z,99.90
2019-04-11T23:36:42.011Z,99.90
2019-04-11T23:39:10.460Z,99.90
2019-04-11T23:41:38.887Z,99.90
2019-04-11T23:44:07.350Z,99.90
2019-04-11T23:46:35.802Z,99.90
2019-04-11T23:49:04.227Z,99.90
2019-04-11T23:51:32.669Z,99.90
2019-04-11T23:54:01.154Z,99.90
2019-04-11T23:56:30.619Z,99.90
2019-04-11T23:59:01.904Z,99.90
